Airports United Kingdom Aberdeen Dyce Airport

Aberdeen Dyce Airport (EGPD / ABZ)

Facts about Aberdeen Dyce Airport

Name Aberdeen Dyce Airport
City Aberdeen
Country United Kingdom
ICAO code EGPD
IATA code ABZ
Elevation 65.5320 meters (215 feet)

Weather

METAR

Metar data retrieved Friday, 19 July 2024 at 23:25 UTC (18 minutes ago)

EGPD 192250Z AUTO 16006KT 120V200 9999 NCD 17/14 Q1009 NOSIG

Live traffic

Navigraph Charts (account required)